createdAt,value
2019-01-24T00:17:19.026Z,-4.00
2019-01-24T00:22:41.437Z,-4.00
2019-01-24T00:41:51.890Z,-3.90
2019-01-24T00:47:09.996Z,-3.90
2019-01-24T00:49:43.312Z,-3.90
2019-01-24T00:52:21.879Z,-3.90
2019-01-24T00:59:23.626Z,-3.90
2019-01-24T01:01:52.984Z,-3.90
2019-01-24T01:04:29.670Z,-3.80
2019-01-24T01:06:55.084Z,-3.80
2019-01-24T01:09:26.875Z,-3.80
2019-01-24T01:12:00.533Z,-3.80
2019-01-24T01:14:29.243Z,-3.80
2019-01-24T01:16:57.948Z,-3.70
2019-01-24T01:19:28.041Z,-3.70
2019-01-24T01:21:56.845Z,-3.80
2019-01-24T01:24:27.134Z,-3.80
2019-01-24T01:26:55.755Z,-3.80
2019-01-24T01:29:26.525Z,-3.80
2019-01-24T01:37:50.126Z,-3.80
2019-01-24T01:40:22.040Z,-3.80
2019-01-24T01:42:51.674Z,-3.90
2019-01-24T01:45:30.200Z,-3.90
2019-01-24T04:04:02.240Z,-4.20
2019-01-24T04:06:30.941Z,-4.20
2019-01-24T04:08:59.783Z,-4.10
2019-01-24T04:11:29.598Z,-4.10
2019-01-24T04:13:59.031Z,-4.10
2019-01-24T04:16:27.736Z,-4.10
2019-01-24T04:18:56.357Z,-4.00
2019-01-24T04:57:43.154Z,-4.30
2019-01-24T05:07:37.801Z,-4.30
2019-01-24T05:10:39.568Z,-4.30
2019-01-24T05:13:12.067Z,-4.30
2019-01-24T05:15:40.891Z,-4.10
2019-01-24T05:18:12.966Z,-4.20
2019-01-24T05:20:42.926Z,-4.20
2019-01-24T05:23:22.931Z,-4.20
2019-01-24T05:25:53.126Z,-4.20
2019-01-24T05:28:24.048Z,-4.10
2019-01-24T05:30:53.303Z,-4.10
2019-01-24T05:33:22.895Z,-4.00
2019-01-24T05:35:55.338Z,-4.00
2019-01-24T05:38:30.488Z,-4.10
2019-01-24T05:41:02.943Z,-4.10
2019-01-24T05:43:34.365Z,-4.00
2019-01-24T06:19:30.276Z,-4.30
2019-01-24T06:21:37.795Z,-4.40
2019-01-24T06:24:07.994Z,-4.40
2019-01-24T06:26:36.638Z,-4.50
2019-01-24T06:29:10.039Z,-4.50
2019-01-24T06:34:53.150Z,-4.70
2019-01-24T07:10:07.669Z,-4.40
2019-01-24T07:12:36.676Z,-4.40
2019-01-24T07:15:27.965Z,-4.40
2019-01-24T07:17:58.888Z,-4.50
2019-01-24T07:20:29.056Z,-4.50
2019-01-24T07:22:59.327Z,-4.50
2019-01-24T07:25:45.053Z,-4.40
2019-01-24T07:28:13.551Z,-4.30
2019-01-24T07:30:42.236Z,-4.30
2019-01-24T07:33:10.935Z,-4.20
2019-01-24T07:35:52.745Z,-4.10
2019-01-24T07:38:21.424Z,-4.00
2019-01-24T07:40:49.946Z,-3.90
2019-01-24T07:43:25.699Z,-4.00
2019-01-24T07:45:54.373Z,-3.90
2019-01-24T07:48:22.986Z,-3.70
2019-01-24T07:50:52.590Z,-3.60
2019-01-24T07:53:22.430Z,-3.60
2019-01-24T07:55:51.062Z,-3.50
2019-01-24T07:58:21.302Z,-3.50
2019-01-24T08:00:49.972Z,-3.60
2019-01-24T08:03:18.595Z,-3.60
2019-01-24T08:05:50.662Z,-3.60
2019-01-24T08:08:19.226Z,-3.70
2019-01-24T08:10:47.972Z,-3.50
2019-01-24T08:13:17.378Z,-3.40
2019-01-24T08:15:47.600Z,-3.30
2019-01-24T08:18:18.448Z,-3.30
2019-01-24T08:20:48.719Z,-3.30
2019-01-24T08:23:17.279Z,-3.30
2019-01-24T08:25:46.150Z,-3.20
2019-01-24T08:28:14.747Z,-3.10
2019-01-24T08:30:44.891Z,-3.00
2019-01-24T08:33:14.031Z,-2.70
2019-01-24T08:35:42.964Z,-2.50
2019-01-24T08:38:13.210Z,-2.40
2019-01-24T08:40:41.714Z,-2.30
2019-01-24T08:43:10.354Z,-2.10
2019-01-24T08:45:38.910Z,-2.00
2019-01-24T08:48:08.664Z,-1.90
2019-01-24T08:50:37.220Z,-1.90
2019-01-24T08:53:05.745Z,-1.80
2019-01-24T08:55:36.335Z,-1.60
2019-01-24T08:58:05.679Z,-1.40
2019-01-24T09:00:34.141Z,-1.20
2019-01-24T09:03:02.780Z,-1.00
2019-01-24T09:05:31.302Z,-0.60
2019-01-24T09:07:59.850Z,-0.30
2019-01-24T09:10:30.844Z,-0.30
2019-01-24T09:12:59.461Z,-0.40
2019-01-24T09:15:29.263Z,-0.30
2019-01-24T09:17:57.869Z,-0.20
2019-01-24T09:20:26.382Z,-0.30
2019-01-24T09:22:55.569Z,-0.60
2019-01-24T09:25:24.233Z,-0.70
2019-01-24T09:27:52.855Z,-0.40
2019-01-24T09:30:24.100Z,-0.10
2019-01-24T09:32:52.724Z,0.20
2019-01-24T09:35:21.276Z,0.10
2019-01-24T09:37:49.923Z,0.30
2019-01-24T09:40:25.160Z,0.40
2019-01-24T09:42:53.262Z,0.50
2019-01-24T09:45:26.255Z,0.40
2019-01-24T09:47:56.256Z,0.30
2019-01-24T09:50:26.159Z,0.30
2019-01-24T09:52:55.341Z,0.20
2019-01-24T09:55:24.059Z,0.10
2019-01-24T09:57:52.754Z,-0.10
2019-01-24T10:00:27.106Z,-0.80
2019-01-24T10:02:55.883Z,-1.10
2019-01-24T10:05:25.184Z,-1.50
2019-01-24T10:07:53.877Z,-1.60
2019-01-24T10:10:24.433Z,-1.50
2019-01-24T10:12:54.995Z,-1.60
2019-01-24T10:15:24.055Z,-1.60
2019-01-24T10:17:52.995Z,-1.80
2019-01-24T10:20:23.626Z,-1.80
2019-01-24T10:22:52.838Z,-1.90
2019-01-24T10:25:32.906Z,-1.90
2019-01-24T10:28:01.467Z,-1.90
2019-01-24T10:30:30.077Z,-1.60
2019-01-24T10:32:58.760Z,-1.20
2019-01-24T10:35:27.573Z,-1.00
2019-01-24T10:37:56.202Z,-0.90
2019-01-24T10:40:29.390Z,-0.80
2019-01-24T10:42:58.019Z,-0.80
2019-01-24T10:45:26.742Z,-0.70
2019-01-24T10:47:55.689Z,-0.80
2019-01-24T10:50:26.091Z,-0.60
2019-01-24T10:52:54.625Z,-0.60
2019-01-24T10:55:24.945Z,-0.50
2019-01-24T10:57:54.572Z,-0.40
2019-01-24T11:00:25.921Z,-0.20
2019-01-24T11:02:54.693Z,0.00
2019-01-24T11:05:23.233Z,0.30
2019-01-24T11:07:51.787Z,0.80
2019-01-24T11:10:21.220Z,0.80
2019-01-24T11:12:49.928Z,0.80
2019-01-24T11:15:23.445Z,0.90
2019-01-24T11:17:52.062Z,0.60
2019-01-24T11:20:21.124Z,0.80
2019-01-24T11:22:50.483Z,1.20
2019-01-24T11:25:22.063Z,1.20
2019-01-24T11:27:50.901Z,1.30
2019-01-24T11:30:27.468Z,1.50
2019-01-24T11:32:56.483Z,1.90
2019-01-24T11:35:30.791Z,1.90
2019-01-24T11:37:59.392Z,2.00
2019-01-24T11:40:28.056Z,2.10
2019-01-24T11:42:56.710Z,2.30
2019-01-24T11:45:27.746Z,2.20
2019-01-24T11:47:56.273Z,2.30
2019-01-24T11:50:24.745Z,2.50
2019-01-24T11:52:53.666Z,2.10
2019-01-24T11:55:22.487Z,2.10
2019-01-24T11:57:51.144Z,2.20
2019-01-24T12:00:26.736Z,1.90
2019-01-24T12:02:55.249Z,1.80
2019-01-24T12:05:23.863Z,1.70
2019-01-24T12:07:52.602Z,1.70
2019-01-24T12:10:27.052Z,1.80
2019-01-24T12:12:55.540Z,2.10
2019-01-24T12:15:26.586Z,2.10
2019-01-24T12:17:55.372Z,1.80
2019-01-24T12:20:25.072Z,1.70
2019-01-24T12:22:53.641Z,1.30
2019-01-24T12:25:22.257Z,1.00
2019-01-24T12:27:58.553Z,0.70
2019-01-24T12:30:37.837Z,0.40
2019-01-24T12:33:07.198Z,0.10
2019-01-24T12:35:35.870Z,-0.10
2019-01-24T12:38:04.668Z,0.00
2019-01-24T12:40:33.254Z,0.20
2019-01-24T12:43:01.953Z,0.30
2019-01-24T12:45:33.295Z,0.40
2019-01-24T12:48:01.852Z,0.30
2019-01-24T12:50:30.432Z,0.40
2019-01-24T12:52:59.238Z,0.50
2019-01-24T12:55:27.851Z,0.50
2019-01-24T12:58:00.515Z,0.50
2019-01-24T13:00:32.291Z,0.30
2019-01-24T13:03:00.856Z,0.20
2019-01-24T13:05:29.682Z,0.10
2019-01-24T13:07:59.864Z,0.00
2019-01-24T13:10:28.842Z,-0.20
2019-01-24T13:13:00.845Z,-0.20
2019-01-24T13:15:31.528Z,-0.20
2019-01-24T13:18:00.129Z,-0.20
2019-01-24T13:20:31.660Z,-0.20
2019-01-24T13:23:00.812Z,-0.30
2019-01-24T13:25:31.529Z,-0.50
2019-01-24T13:28:00.094Z,-0.50
2019-01-24T13:30:34.433Z,-0.70
2019-01-24T13:33:04.268Z,-0.70
2019-01-24T13:35:33.458Z,-0.70
2019-01-24T13:38:02.398Z,-0.60
2019-01-24T13:40:31.345Z,-0.70
2019-01-24T13:43:00.668Z,-0.80
2019-01-24T13:45:32.376Z,-0.80
2019-01-24T13:48:01.296Z,-0.80
2019-01-24T13:50:29.833Z,-0.90
2019-01-24T13:52:58.418Z,-0.80
2019-01-24T13:55:26.962Z,-0.90
2019-01-24T13:57:55.710Z,-1.00
2019-01-24T14:00:35.367Z,-1.00
2019-01-24T14:03:08.287Z,-1.10
2019-01-24T14:05:37.187Z,-1.10
2019-01-24T14:08:08.266Z,-1.10
2019-01-24T14:10:36.800Z,-1.30
2019-01-24T14:13:06.032Z,-1.40
2019-01-24T14:15:34.827Z,-1.40
2019-01-24T14:18:03.974Z,-1.40
2019-01-24T14:20:36.012Z,-1.40
2019-01-24T14:23:05.077Z,-1.40
2019-01-24T14:25:34.937Z,-1.50
2019-01-24T14:28:04.453Z,-1.60
2019-01-24T14:30:34.638Z,-1.70
2019-01-24T14:33:03.257Z,-1.80
2019-01-24T14:35:32.663Z,-1.70
2019-01-24T14:38:01.612Z,-1.60
2019-01-24T14:40:34.148Z,-1.60
2019-01-24T14:43:04.089Z,-1.60
2019-01-24T14:45:33.693Z,-1.60
2019-01-24T14:48:02.997Z,-1.70
2019-01-24T14:50:33.843Z,-1.60
2019-01-24T14:53:02.446Z,-1.50
2019-01-24T14:55:32.853Z,-1.60
2019-01-24T14:58:03.907Z,-1.80
2019-01-24T15:00:45.861Z,-1.90
2019-01-24T15:03:21.675Z,-2.00
2019-01-24T15:05:51.857Z,-1.90
2019-01-24T15:08:21.426Z,-1.90
2019-01-24T15:10:51.676Z,-2.00
2019-01-24T15:13:20.542Z,-2.00
2019-01-24T15:15:49.263Z,-1.90
2019-01-24T15:18:17.929Z,-1.90
2019-01-24T15:20:48.171Z,-2.10
2019-01-24T15:23:19.658Z,-2.10
2019-01-24T15:25:48.294Z,-2.20
2019-01-24T15:28:17.230Z,-2.30
2019-01-24T15:30:49.787Z,-2.50
2019-01-24T15:33:18.634Z,-2.50
2019-01-24T15:35:47.474Z,-2.50
2019-01-24T15:38:19.417Z,-2.50
2019-01-24T15:40:49.557Z,-2.50
2019-01-24T15:43:21.274Z,-2.50
2019-01-24T15:45:51.491Z,-2.60
2019-01-24T15:48:21.211Z,-2.60
2019-01-24T15:50:50.938Z,-2.60
2019-01-24T15:53:32.779Z,-2.70
2019-01-24T15:55:57.225Z,-2.70
2019-01-24T15:58:25.908Z,-2.70
2019-01-24T16:00:55.769Z,-2.80
2019-01-24T16:03:26.248Z,-2.90
2019-01-24T16:05:55.459Z,-2.90
2019-01-24T16:08:24.039Z,-2.90
2019-01-24T16:10:54.263Z,-3.00
2019-01-24T16:13:22.923Z,-3.00
2019-01-24T16:15:51.703Z,-3.10
2019-01-24T16:18:20.276Z,-3.10
2019-01-24T16:20:48.781Z,-3.10
2019-01-24T16:23:18.227Z,-3.00
2019-01-24T16:25:46.822Z,-3.10
2019-01-24T16:28:15.499Z,-3.00
2019-01-24T16:30:44.099Z,-3.10
2019-01-24T16:33:14.368Z,-3.10
2019-01-24T16:35:44.745Z,-3.10
2019-01-24T16:38:13.472Z,-3.10
2019-01-24T16:40:42.135Z,-3.10
2019-01-24T16:43:13.584Z,-3.10
2019-01-24T16:45:42.321Z,-3.10
2019-01-24T16:48:10.967Z,-3.10
2019-01-24T16:50:40.752Z,-3.10
2019-01-24T16:53:09.507Z,-3.10
2019-01-24T16:55:38.224Z,-3.20
2019-01-24T16:58:08.416Z,-3.20
2019-01-24T17:00:47.295Z,-3.20
2019-01-24T17:03:20.186Z,-3.20
2019-01-24T17:05:50.390Z,-3.20
2019-01-24T17:08:19.056Z,-3.20
2019-01-24T17:10:53.775Z,-3.10
2019-01-24T17:17:40.566Z,-3.10
2019-01-24T17:20:15.094Z,-3.10
2019-01-24T17:22:45.397Z,-3.10
2019-01-24T17:25:17.710Z,-3.10
2019-01-24T17:27:46.660Z,-3.10
2019-01-24T17:30:27.788Z,-3.10
2019-01-24T17:33:09.526Z,-3.10
2019-01-24T17:35:38.781Z,-3.10
2019-01-24T17:38:09.550Z,-3.10
2019-01-24T17:40:38.326Z,-3.10
2019-01-24T17:43:07.814Z,-3.10
2019-01-24T17:45:40.781Z,-3.20
2019-01-24T17:48:10.146Z,-3.20
2019-01-24T17:50:40.291Z,-3.20
2019-01-24T17:53:11.078Z,-3.20
2019-01-24T17:55:43.639Z,-3.20
2019-01-24T17:58:13.566Z,-3.10
2019-01-24T18:00:44.700Z,-3.10
2019-01-24T18:03:35.094Z,-3.10
2019-01-24T18:06:05.677Z,-3.10
2019-01-24T18:08:56.529Z,-3.10
2019-01-24T18:11:28.557Z,-3.20
2019-01-24T18:13:57.966Z,-3.20
2019-01-24T18:16:27.661Z,-3.20
2019-01-24T18:18:56.530Z,-3.10
2019-01-24T18:28:57.678Z,-3.20
2019-01-24T18:31:27.417Z,-3.30
2019-01-24T18:33:58.312Z,-3.30
2019-01-24T18:36:32.096Z,-3.30
2019-01-24T18:39:12.818Z,-3.30
2019-01-24T18:41:42.905Z,-3.30
2019-01-24T18:50:54.278Z,-3.30
2019-01-24T19:03:20.157Z,-3.40
2019-01-24T19:05:48.957Z,-3.30
2019-01-24T19:08:18.485Z,-3.40
2019-01-24T19:10:50.336Z,-3.50
2019-01-24T19:13:20.400Z,-3.50
2019-01-24T19:15:50.669Z,-3.50
2019-01-24T19:18:24.174Z,-3.50
2019-01-24T19:20:54.076Z,-3.50
2019-01-24T19:23:24.501Z,-3.50
2019-01-24T19:25:54.957Z,-3.50
2019-01-24T19:28:25.992Z,-3.50
2019-01-24T19:30:58.830Z,-3.60
2019-01-24T19:38:00.653Z,-3.60
2019-01-24T19:40:33.668Z,-3.60
2019-01-24T20:10:06.722Z,-3.70
2019-01-24T20:12:39.460Z,-3.70
2019-01-24T20:15:11.201Z,-3.70
2019-01-24T20:17:39.876Z,-3.80
2019-01-24T20:20:19.050Z,-3.80
2019-01-24T20:22:48.135Z,-3.70
2019-01-24T20:25:31.084Z,-3.70
2019-01-24T20:28:00.465Z,-3.70
2019-01-24T20:30:34.036Z,-3.70
2019-01-24T20:33:04.874Z,-3.70
2019-01-24T20:35:39.203Z,-3.70
2019-01-24T20:38:10.139Z,-3.70
2019-01-24T20:40:41.064Z,-3.70
2019-01-24T20:43:11.583Z,-3.70
2019-01-24T20:45:40.346Z,-3.90
2019-01-24T20:48:09.087Z,-4.00
2019-01-24T20:50:37.878Z,-4.00
2019-01-24T20:53:11.254Z,-4.00
2019-01-24T20:55:43.280Z,-4.00
2019-01-24T20:58:17.578Z,-4.10
2019-01-24T21:00:47.860Z,-4.10
2019-01-24T21:03:16.627Z,-4.00
2019-01-24T21:05:49.181Z,-4.10
2019-01-24T21:08:17.809Z,-4.00
2019-01-24T21:10:46.391Z,-4.00
2019-01-24T21:13:15.560Z,-3.90
2019-01-24T21:15:44.200Z,-3.80
2019-01-24T21:18:12.856Z,-3.80
2019-01-24T21:20:41.541Z,-3.90
2019-01-24T21:23:10.329Z,-4.00
2019-01-24T21:25:39.019Z,-4.10
2019-01-24T21:28:07.786Z,-4.00
2019-01-24T21:30:37.678Z,-4.10
2019-01-24T21:33:07.440Z,-4.00
